Time;durP1;ratioP1;P1;durP2;ratioP2;P2;SDS_P1;SDS_P2;PMS_P1;PMS_P2;Temp;Humidity;BMP_temperature;BMP_pressure;BME280_temperature;BME280_humidity;BME280_pressure;Samples;Min_cycle;Max_cycle;Signal;HPM_P1;HPM_P2
2021/04/23 00:00:25;;;;;;;16.52;8.55;;;;;;;7.76;56.30;100167.16;4958532;28;20193;-72
2021/04/23 00:02:54;;;;;;;12.57;8.05;;;;;;;7.71;56.49;100167.31;4959124;29;20308;-72
2021/04/23 00:05:20;;;;;;;12.88;7.97;;;;;;;7.72;56.51;100169.94;4958493;29;20232;-72
2021/04/23 00:07:46;;;;;;;12.88;8.77;;;;;;;7.82;56.31;100170.47;4958745;29;20240;-70
2021/04/23 00:10:16;;;;;;;12.10;8.20;;;;;;;7.70;56.72;100170.94;4958824;28;20236;-72
2021/04/23 00:12:43;;;;;;;14.40;8.45;;;;;;;7.77;56.51;100172.44;4958401;29;20251;-71
2021/04/23 00:15:13;;;;;;;12.32;8.63;;;;;;;7.87;56.42;100171.19;4958612;28;20189;-71
2021/04/23 00:17:40;;;;;;;12.30;7.80;;;;;;;7.83;56.49;100166.00;4958890;29;20320;-71
2021/04/23 00:20:09;;;;;;;12.00;7.82;;;;;;;7.73;56.81;100174.41;4958506;29;20192;-71
2021/04/23 00:22:35;;;;;;;13.38;8.45;;;;;;;7.72;57.00;100180.66;4958620;29;20211;-71
2021/04/23 00:25:01;;;;;;;13.10;8.50;;;;;;;7.61;57.51;100176.66;4958657;29;20679;-71
2021/04/23 00:27:27;;;;;;;12.00;8.18;;;;;;;7.52;58.08;100172.50;4958807;29;20240;-71
2021/04/23 00:29:54;;;;;;;16.70;8.00;;;;;;;7.51;58.18;100170.75;4957994;28;20193;-72
2021/04/23 00:35:06;;;;;;;16.30;8.30;;;;;;;7.29;59.19;100168.84;4958054;29;20184;-71
2021/04/23 00:37:32;;;;;;;16.20;8.73;;;;;;;7.25;59.53;100169.00;4958277;29;20221;-71
2021/04/23 00:39:58;;;;;;;15.60;8.30;;;;;;;7.51;58.52;100160.03;4958285;28;20289;-72
2021/04/23 00:42:25;;;;;;;14.45;8.30;;;;;;;7.38;58.80;100158.72;4958055;29;20221;-71
2021/04/23 00:44:51;;;;;;;14.18;9.20;;;;;;;7.45;58.54;100162.94;4957736;28;20315;-71
2021/04/23 00:47:17;;;;;;;18.45;8.88;;;;;;;7.38;58.79;100156.91;4958319;28;20284;-70
2021/04/23 00:49:44;;;;;;;12.52;8.70;;;;;;;7.27;58.99;100159.97;4958341;28;20208;-71
2021/04/23 00:52:10;;;;;;;13.52;8.85;;;;;;;7.43;58.79;100154.06;4958151;28;20605;-71
2021/04/23 00:54:36;;;;;;;13.32;8.00;;;;;;;7.25;59.14;100155.59;4958040;29;20267;-72
2021/04/23 00:57:03;;;;;;;13.75;9.07;;;;;;;7.37;58.71;100156.97;4958573;29;20275;-71
2021/04/23 00:59:29;;;;;;;15.85;8.02;;;;;;;7.29;59.13;100150.09;4957417;29;20287;-71
2021/04/23 01:01:58;;;;;;;17.55;8.80;;;;;;;7.31;58.80;100164.31;4958039;29;20196;-71
2021/04/23 01:04:28;;;;;;;17.00;8.07;;;;;;;7.32;58.93;100159.81;4957936;28;20756;-71
2021/04/23 01:06:56;;;;;;;15.30;8.50;;;;;;;7.34;59.06;100157.09;4957828;28;20260;-71
2021/04/23 01:09:27;;;;;;;16.05;7.43;;;;;;;7.49;58.69;100160.09;4957962;28;20711;-70
2021/04/23 01:11:55;;;;;;;11.68;8.05;;;;;;;7.46;58.84;100156.63;4957339;28;20225;-70
2021/04/23 01:14:21;;;;;;;14.25;8.65;;;;;;;7.45;59.09;100157.56;4957570;28;20201;-71
2021/04/23 01:16:48;;;;;;;17.50;8.07;;;;;;;7.22;59.81;100163.75;4957775;28;20213;-71
2021/04/23 01:19:18;;;;;;;10.80;8.45;;;;;;;7.16;60.22;100159.47;4957546;29;20561;-71
2021/04/23 01:21:45;;;;;;;10.65;8.05;;;;;;;7.12;60.53;100165.88;4957540;29;20251;-71
2021/04/23 01:24:13;;;;;;;14.50;8.35;;;;;;;7.07;60.79;100165.16;4957234;28;20212;-71
2021/04/23 01:26:44;;;;;;;13.45;7.70;;;;;;;7.14;60.55;100169.38;4957112;28;20232;-72
2021/04/23 01:29:12;;;;;;;13.38;7.85;;;;;;;7.03;61.04;100164.41;4957478;29;20204;-71
2021/04/23 01:31:40;;;;;;;13.05;8.35;;;;;;;7.04;61.02;100162.59;4957584;28;20195;-71
2021/04/23 01:34:09;;;;;;;9.57;7.57;;;;;;;6.98;61.31;100168.16;4957262;29;20708;-71
2021/04/23 01:36:36;;;;;;;12.93;8.25;;;;;;;6.86;61.52;100161.41;4957512;29;20532;-71
2021/04/23 01:39:06;;;;;;;13.13;8.07;;;;;;;7.01;61.08;100170.72;4957160;28;20602;-70
2021/04/23 01:41:33;;;;;;;11.63;8.38;;;;;;;6.88;61.77;100176.50;4957425;29;20500;-72
2021/04/23 01:44:00;;;;;;;11.32;8.20;;;;;;;6.72;62.17;100177.06;4956871;29;20196;-71
2021/04/23 01:46:26;;;;;;;11.70;8.00;;;;;;;6.86;61.94;100173.00;4957066;28;20275;-71
2021/04/23 01:48:52;;;;;;;12.45;8.82;;;;;;;6.71;62.39;100175.31;4957050;28;20726;-71
2021/04/23 01:51:19;;;;;;;15.50;8.60;;;;;;;6.82;62.02;100181.19;4957133;28;20639;-71
2021/04/23 01:53:46;;;;;;;12.52;8.73;;;;;;;6.77;62.17;100184.00;4956986;29;20268;-71
2021/04/23 01:56:13;;;;;;;12.90;8.85;;;;;;;6.85;61.75;100175.72;4956495;29;20283;-71
2021/04/23 01:58:40;;;;;;;17.45;8.85;;;;;;;6.93;61.72;100192.41;4957162;29;20614;-71
2021/04/23 02:01:08;;;;;;;12.23;9.10;;;;;;;6.68;62.48;100189.66;4956444;29;20243;-72
2021/04/23 02:03:35;;;;;;;16.98;9.05;;;;;;;6.55;63.02;100191.88;4956064;28;20193;-71
2021/04/23 02:06:01;;;;;;;14.63;8.80;;;;;;;6.46;63.51;100189.47;4956557;29;20236;-71
2021/04/23 02:08:28;;;;;;;11.30;9.27;;;;;;;6.43;63.57;100190.47;4956515;28;20212;-72
2021/04/23 02:10:58;;;;;;;17.30;9.60;;;;;;;6.31;64.22;100193.53;4956872;29;20193;-70
2021/04/23 02:13:27;;;;;;;19.75;10.50;;;;;;;6.21;64.43;100198.28;4956673;29;20201;-71
2021/04/23 02:15:53;;;;;;;17.92;8.90;;;;;;;6.18;64.86;100197.50;4956239;28;20232;-72
2021/04/23 02:18:20;;;;;;;15.63;9.90;;;;;;;6.20;64.89;100199.22;4956717;29;20682;-72
2021/04/23 02:20:46;;;;;;;18.25;9.27;;;;;;;6.08;65.19;100196.88;4956584;28;20291;-71
2021/04/23 02:23:14;;;;;;;14.43;9.57;;;;;;;6.05;65.57;100197.84;4956710;29;20320;-71
2021/04/23 02:25:41;;;;;;;18.05;9.85;;;;;;;6.15;65.27;100194.91;4956439;29;20678;-71
2021/04/23 02:28:09;;;;;;;18.15;9.65;;;;;;;6.38;64.46;100200.44;4956157;29;20299;-72
2021/04/23 02:30:39;;;;;;;18.30;9.98;;;;;;;6.21;65.17;100200.06;4956433;29;20307;-71
2021/04/23 02:33:07;;;;;;;14.63;9.30;;;;;;;6.32;64.74;100197.94;4956318;28;20284;-71
2021/04/23 02:35:34;;;;;;;15.77;9.73;;;;;;;6.36;64.46;100199.59;4956127;29;20208;-71
2021/04/23 02:38:01;;;;;;;17.52;9.65;;;;;;;6.21;64.98;100210.78;4956392;28;20188;-71
2021/04/23 02:40:29;;;;;;;16.70;8.98;;;;;;;6.16;65.40;100207.38;4955920;29;20426;-71
2021/04/23 02:42:57;;;;;;;20.38;10.18;;;;;;;5.94;66.09;100213.34;4955850;28;20193;-71
2021/04/23 02:45:29;;;;;;;15.18;9.65;;;;;;;5.90;66.28;100217.03;4955847;29;20220;-71
2021/04/23 02:47:57;;;;;;;19.92;9.75;;;;;;;5.74;67.26;100213.00;4956362;29;20674;-71
2021/04/23 02:50:26;;;;;;;16.10;8.90;;;;;;;5.77;67.20;100211.13;4956080;29;20195;-72
2021/04/23 02:52:53;;;;;;;13.35;9.80;;;;;;;5.74;67.67;100205.00;4955885;29;20198;-71
2021/04/23 02:55:19;;;;;;;11.15;8.77;;;;;;;5.73;67.60;100213.94;4956145;29;20639;-72
2021/04/23 02:57:58;;;;;;;16.17;10.18;;;;;;;5.77;67.32;100210.28;4956013;29;20193;-71
2021/04/23 03:00:27;;;;;;;19.73;9.68;;;;;;;5.70;67.54;100214.00;4955690;29;20290;-71
2021/04/23 03:02:54;;;;;;;18.27;9.80;;;;;;;5.57;68.12;100217.03;4956168;28;20219;-71
2021/04/23 03:05:22;;;;;;;15.85;9.27;;;;;;;5.46;68.65;100224.47;4955516;29;20236;-70
2021/04/23 03:07:50;;;;;;;12.80;9.20;;;;;;;5.40;68.71;100225.53;4955534;29;20593;-72
2021/04/23 03:10:18;;;;;;;13.45;9.68;;;;;;;5.42;68.71;100214.78;4956029;29;20297;-72
2021/04/23 03:12:45;;;;;;;14.77;9.60;;;;;;;5.56;68.41;100215.31;4955470;29;20234;-72
2021/04/23 03:15:12;;;;;;;20.23;11.23;;;;;;;5.63;68.10;100222.22;4955693;28;20671;-72
2021/04/23 03:17:38;;;;;;;16.00;9.35;;;;;;;5.76;67.68;100219.19;4955221;28;20214;-71
2021/04/23 03:20:12;;;;;;;12.52;8.77;;;;;;;5.53;68.13;100220.72;4955391;29;20195;-71
2021/04/23 03:22:40;;;;;;;20.33;9.70;;;;;;;5.36;69.17;100214.94;4955682;29;20220;-71
2021/04/23 03:25:07;;;;;;;17.90;10.10;;;;;;;5.39;69.08;100220.22;4955410;29;20254;-71
2021/04/23 03:27:34;;;;;;;18.27;10.25;;;;;;;5.26;69.50;100221.47;4955251;28;20231;-71
2021/04/23 03:30:01;;;;;;;12.55;9.15;;;;;;;5.35;69.29;100221.22;4955586;29;20207;-71
2021/04/23 03:32:27;;;;;;;15.45;9.65;;;;;;;5.38;69.51;100221.13;4955517;29;20191;-72
2021/04/23 03:34:53;;;;;;;17.15;9.25;;;;;;;5.35;69.36;100219.41;4955256;29;20232;-70
2021/04/23 03:37:20;;;;;;;17.88;10.00;;;;;;;5.34;69.65;100228.34;4955370;28;20345;-71
2021/04/23 03:39:47;;;;;;;20.20;9.77;;;;;;;5.30;69.75;100228.47;4955175;29;20283;-71
2021/04/23 03:42:13;;;;;;;15.23;9.95;;;;;;;5.28;69.70;100232.97;4955762;29;20686;-70
2021/04/23 03:44:39;;;;;;;15.15;9.10;;;;;;;5.15;70.40;100222.59;4955383;28;20700;-71
2021/04/23 03:47:05;;;;;;;15.85;9.13;;;;;;;5.37;69.57;100227.38;4955343;28;20280;-71
2021/04/23 03:49:32;;;;;;;14.10;8.93;;;;;;;4.99;70.69;100222.13;4955336;29;20627;-72
2021/04/23 03:51:59;;;;;;;15.93;9.90;;;;;;;4.98;70.95;100220.38;4954915;28;20210;-71
2021/04/23 03:54:25;;;;;;;13.15;9.65;;;;;;;4.94;71.42;100224.03;4954940;29;20191;-71
2021/04/23 03:56:52;;;;;;;13.07;9.82;;;;;;;4.90;71.27;100226.81;4955219;28;20240;-71
2021/04/23 03:59:18;;;;;;;15.02;10.63;;;;;;;5.05;71.02;100223.78;4955294;29;20681;-71
2021/04/23 04:01:45;;;;;;;20.75;11.25;;;;;;;5.33;69.93;100226.59;4955220;28;20214;-72
2021/04/23 04:04:11;;;;;;;13.27;9.35;;;;;;;5.25;70.03;100225.06;4954756;28;20327;-72
2021/04/23 04:06:37;;;;;;;12.90;8.70;;;;;;;5.21;70.37;100219.78;4954657;29;20193;-71
2021/04/23 04:09:04;;;;;;;19.40;9.40;;;;;;;5.21;70.52;100225.13;4954817;29;20281;-71
2021/04/23 04:11:31;;;;;;;18.13;9.80;;;;;;;5.14;70.41;100223.53;4955050;29;20209;-72
2021/04/23 04:13:58;;;;;;;16.52;9.88;;;;;;;4.95;71.03;100230.25;4954985;29;20205;-71
2021/04/23 04:16:24;;;;;;;14.20;9.55;;;;;;;4.93;71.09;100224.97;4954864;28;20207;-72
2021/04/23 04:18:50;;;;;;;18.73;10.15;;;;;;;5.13;70.78;100227.13;4955036;29;20298;-71
2021/04/23 04:21:16;;;;;;;18.33;10.85;;;;;;;5.05;70.61;100231.78;4954684;29;20326;-70
2021/04/23 04:23:43;;;;;;;15.88;9.00;;;;;;;4.94;71.38;100228.50;4954853;29;20532;-70
2021/04/23 04:26:09;;;;;;;14.45;9.45;;;;;;;5.03;71.09;100232.75;4954816;28;20210;-71
2021/04/23 04:28:35;;;;;;;16.15;10.77;;;;;;;5.05;71.19;100231.78;4957617;29;20292;-71
2021/04/23 04:31:02;;;;;;;19.83;9.30;;;;;;;5.16;70.66;100237.72;4958172;29;20187;-71
2021/04/23 04:33:28;;;;;;;20.20;10.05;;;;;;;5.14;70.91;100239.56;4958839;29;20192;-71
2021/04/23 04:35:55;;;;;;;15.80;10.52;;;;;;;5.09;71.08;100241.47;4957710;29;20194;-70
2021/04/23 04:38:21;;;;;;;12.65;9.32;;;;;;;5.09;71.35;100240.56;4958389;29;20228;-70
2021/04/23 04:40:50;;;;;;;20.20;10.45;;;;;;;4.96;71.70;100238.22;4958017;29;20246;-72
2021/04/23 04:43:18;;;;;;;19.77;11.55;;;;;;;4.98;71.03;100241.72;4957854;29;20272;-71
2021/04/23 04:45:45;;;;;;;14.82;10.30;;;;;;;4.96;71.83;100242.69;4958257;29;20223;-72
2021/04/23 04:48:13;;;;;;;17.88;10.50;;;;;;;4.97;71.66;100247.97;4958359;28;20205;-72
2021/04/23 04:50:42;;;;;;;17.88;10.90;;;;;;;4.89;71.59;100249.09;4958239;29;20925;-71
2021/04/23 04:53:09;;;;;;;20.52;11.00;;;;;;;4.99;71.49;100247.94;4957755;29;20298;-72
2021/04/23 04:55:38;;;;;;;19.45;11.68;;;;;;;4.86;72.25;100247.38;4958080;28;20256;-71
2021/04/23 04:58:06;;;;;;;16.23;10.90;;;;;;;5.03;71.50;100252.28;4957551;29;20192;-73
2021/04/23 05:00:33;;;;;;;18.48;9.90;;;;;;;5.18;71.00;100259.91;4957927;29;20550;-71
2021/04/23 05:02:59;;;;;;;16.35;9.98;;;;;;;5.32;70.15;100259.56;4958222;29;20206;-71
2021/04/23 05:05:28;;;;;;;19.38;10.18;;;;;;;5.31;70.14;100263.13;4956971;29;20239;-71
2021/04/23 05:07:54;;;;;;;18.60;11.38;;;;;;;5.35;70.02;100258.59;4957811;29;20281;-70
2021/04/23 05:10:21;;;;;;;18.13;10.43;;;;;;;5.36;70.03;100265.69;4957695;29;20246;-70
2021/04/23 05:12:47;;;;;;;16.63;11.38;;;;;;;5.40;70.43;100264.69;4957559;29;20335;-70
2021/04/23 05:15:16;;;;;;;20.55;10.73;;;;;;;5.38;69.84;100267.41;4957153;28;20288;-71
2021/04/23 05:17:44;;;;;;;21.13;12.07;;;;;;;5.62;69.89;100276.56;4956919;28;20226;-71
2021/04/23 05:20:12;;;;;;;17.58;12.02;;;;;;;5.55;69.36;100274.09;4953454;29;20285;-70
2021/04/23 05:22:39;;;;;;;19.25;11.68;;;;;;;5.50;69.70;100271.56;4957352;29;20200;-70
2021/04/23 05:25:08;;;;;;;21.77;10.95;;;;;;;5.58;69.54;100272.22;4956722;29;20307;-70
2021/04/23 05:27:34;;;;;;;19.67;13.45;;;;;;;5.74;69.59;100269.13;4957283;29;20695;-72
2021/04/23 05:30:01;;;;;;;19.60;12.95;;;;;;;5.79;68.98;100270.78;4957520;29;20295;-70
2021/04/23 05:32:27;;;;;;;21.23;10.80;;;;;;;5.95;68.19;100273.06;4957140;29;20608;-71
2021/04/23 05:34:54;;;;;;;17.92;11.10;;;;;;;6.08;68.09;100276.22;4957063;28;20247;-71
2021/04/23 05:37:21;;;;;;;22.80;10.00;;;;;;;6.09;67.42;100280.66;4956551;28;20276;-72
2021/04/23 05:39:50;;;;;;;21.48;11.15;;;;;;;6.31;66.49;100281.78;4955019;28;20204;-72
2021/04/23 05:42:16;;;;;;;18.00;11.20;;;;;;;6.43;66.09;100286.75;4956130;29;20223;-73
2021/04/23 05:44:43;;;;;;;21.77;10.30;;;;;;;6.26;66.77;100295.31;4956232;29;20228;-72
2021/04/23 05:47:10;;;;;;;35.60;12.98;;;;;;;6.49;66.22;100296.41;4956227;29;20547;-72
2021/04/23 05:49:36;;;;;;;25.45;11.55;;;;;;;6.60;65.60;100294.28;4956076;29;20698;-72
2021/04/23 05:52:05;;;;;;;17.27;10.38;;;;;;;6.58;65.16;100290.78;4956084;29;20304;-72
2021/04/23 05:54:31;;;;;;;22.45;12.23;;;;;;;6.84;64.97;100292.63;4956310;29;20272;-72
2021/04/23 05:56:58;;;;;;;18.63;11.90;;;;;;;7.00;63.99;100289.47;4956025;29;20197;-71
2021/04/23 05:59:25;;;;;;;23.35;10.57;;;;;;;7.00;63.61;100287.66;4955942;28;20298;-71
2021/04/23 06:01:51;;;;;;;18.30;11.43;;;;;;;7.03;64.01;100289.34;4956059;29;20208;-72
2021/04/23 06:04:17;;;;;;;18.13;11.70;;;;;;;7.21;63.52;100288.78;4955903;29;20232;-71
2021/04/23 06:06:43;;;;;;;17.17;10.13;;;;;;;7.26;62.88;100289.50;4956228;28;20211;-71
2021/04/23 06:09:10;;;;;;;20.38;11.43;;;;;;;7.29;63.09;100293.88;4955790;28;20616;-72
2021/04/23 06:11:36;;;;;;;15.25;9.95;;;;;;;7.43;62.27;100302.31;4956283;29;20706;-71
2021/04/23 06:14:04;;;;;;;22.42;11.20;;;;;;;7.63;62.08;100292.72;4955657;28;20236;-71
2021/04/23 06:16:31;;;;;;;15.63;9.00;;;;;;;7.80;60.53;100301.06;4955775;28;20223;-72
2021/04/23 06:18:57;;;;;;;23.40;11.30;;;;;;;8.15;59.08;100301.56;4955760;28;20250;-71
2021/04/23 06:21:24;;;;;;;18.75;11.13;;;;;;;8.41;57.80;100299.72;4956054;28;20210;-71
2021/04/23 06:23:51;;;;;;;11.18;9.13;;;;;;;8.56;56.60;100301.84;4955312;28;20205;-72
2021/04/23 06:26:17;;;;;;;14.65;9.73;;;;;;;8.63;56.54;100289.06;4955539;29;20626;-72
2021/04/23 06:28:44;;;;;;;19.48;11.43;;;;;;;8.69;56.91;100297.75;4956028;29;20260;-72
2021/04/23 06:31:12;;;;;;;16.33;9.30;;;;;;;8.57;56.89;100303.59;4955611;29;20240;-72
2021/04/23 06:33:40;;;;;;;16.23;10.35;;;;;;;8.75;56.34;100296.63;4955303;29;20295;-72
2021/04/23 06:36:08;;;;;;;19.08;10.35;;;;;;;8.85;55.58;100298.00;4955513;29;20181;-71
2021/04/23 06:38:35;;;;;;;18.83;10.45;;;;;;;9.00;55.57;100295.63;4955610;28;20193;-70
2021/04/23 06:41:01;;;;;;;19.55;9.82;;;;;;;9.23;54.56;100290.22;4955289;29;20291;-72
2021/04/23 06:43:28;;;;;;;17.40;10.05;;;;;;;9.24;54.27;100293.75;4955283;29;20191;-72
2021/04/23 06:45:54;;;;;;;20.73;8.77;;;;;;;9.40;53.40;100298.41;4955089;28;20229;-71
2021/04/23 06:48:23;;;;;;;17.55;9.15;;;;;;;9.54;52.65;100308.63;4955610;29;20296;-72
2021/04/23 06:50:50;;;;;;;13.02;8.90;;;;;;;9.89;51.74;100306.19;4954996;28;20194;-72
2021/04/23 06:53:18;;;;;;;14.27;9.27;;;;;;;9.92;51.30;100303.38;4955136;29;20313;-71
2021/04/23 06:55:45;;;;;;;17.40;9.57;;;;;;;9.95;50.98;100305.94;4955252;28;20554;-70
2021/04/23 06:58:12;;;;;;;12.75;8.70;;;;;;;9.94;51.14;100308.69;4955295;28;20571;-71
2021/04/23 07:00:40;;;;;;;14.20;8.20;;;;;;;10.04;50.44;100315.44;4955151;28;20202;-71
2021/04/23 07:03:09;;;;;;;13.30;8.88;;;;;;;9.96;50.34;100315.75;4955053;28;20300;-71
2021/04/23 07:05:37;;;;;;;15.07;9.05;;;;;;;10.09;50.19;100320.59;4954451;28;20269;-70
2021/04/23 07:08:05;;;;;;;13.07;8.15;;;;;;;10.32;49.77;100327.66;4954691;29;20539;-72
2021/04/23 07:10:31;;;;;;;17.20;8.82;;;;;;;10.57;49.06;100324.72;4954083;28;20203;-72
2021/04/23 07:12:59;;;;;;;15.30;8.73;;;;;;;10.46;49.03;100324.34;4951685;29;20202;-72
2021/04/23 07:15:27;;;;;;;16.02;11.15;;;;;;;10.76;48.48;100316.63;4954872;29;20660;-71
2021/04/23 07:17:55;;;;;;;10.23;7.53;;;;;;;10.83;47.87;100324.38;4954772;28;20661;-71
2021/04/23 07:20:22;;;;;;;14.00;8.55;;;;;;;10.76;48.26;100327.41;4936230;29;20212;-71
2021/04/23 07:22:50;;;;;;;19.05;9.02;;;;;;;10.87;47.98;100330.47;4942320;29;20229;-71
2021/04/23 07:25:17;;;;;;;12.57;7.90;;;;;;;11.01;47.38;100338.78;4954627;29;20219;-71
2021/04/23 07:27:43;;;;;;;14.02;7.57;;;;;;;11.04;47.29;100335.06;4954809;29;20242;-70
2021/04/23 07:30:11;;;;;;;14.13;8.80;;;;;;;11.07;47.13;100334.91;4955073;29;20299;-71
2021/04/23 07:32:38;;;;;;;12.77;7.57;;;;;;;11.18;46.91;100334.38;4954802;29;20259;-71
2021/04/23 07:35:05;;;;;;;16.40;9.80;;;;;;;11.33;46.62;100338.13;4954966;29;20713;-71
2021/04/23 07:37:32;;;;;;;14.02;10.30;;;;;;;11.62;45.96;100331.28;4954389;28;20191;-71
2021/04/23 07:39:59;;;;;;;12.45;8.32;;;;;;;11.49;45.96;100325.66;4954337;28;20216;-71
2021/04/23 07:42:25;;;;;;;14.68;8.00;;;;;;;11.65;45.45;100328.44;4955152;29;20211;-71
2021/04/23 07:44:51;;;;;;;15.30;7.85;;;;;;;11.63;45.51;100331.22;4954476;28;20223;-71
2021/04/23 07:47:21;;;;;;;18.00;8.68;;;;;;;11.83;44.98;100327.50;4954445;29;20681;-71
2021/04/23 07:49:47;;;;;;;15.27;8.15;;;;;;;11.87;44.84;100329.13;4954771;29;20221;-71
2021/04/23 07:52:14;;;;;;;13.45;8.63;;;;;;;11.87;44.68;100328.19;4955430;29;20247;-71
2021/04/23 07:54:41;;;;;;;14.65;8.30;;;;;;;12.06;44.61;100328.16;4954729;28;20211;-71
2021/04/23 07:57:09;;;;;;;14.90;7.50;;;;;;;12.25;44.11;100323.50;4955267;28;20643;-72
2021/04/23 07:59:37;;;;;;;16.10;8.57;;;;;;;12.17;44.61;100320.38;4955107;29;20196;-70
2021/04/23 08:02:04;;;;;;;15.18;9.05;;;;;;;12.39;44.01;100324.59;4956096;28;20677;-71
2021/04/23 08:04:31;;;;;;;15.27;7.68;;;;;;;12.63;43.36;100330.50;4958292;29;20248;-71
2021/04/23 08:06:57;;;;;;;12.98;8.52;;;;;;;12.60;43.26;100323.44;4957716;29;20211;-71
2021/04/23 08:09:23;;;;;;;12.30;8.20;;;;;;;12.64;42.82;100321.41;4958353;28;20275;-71
2021/04/23 08:11:50;;;;;;;13.27;8.40;;;;;;;12.41;42.93;100323.56;4958695;29;20215;-70
2021/04/23 08:14:17;;;;;;;13.95;7.38;;;;;;;12.56;42.63;100326.41;4958675;28;20631;-70
2021/04/23 08:16:43;;;;;;;10.13;8.23;;;;;;;12.54;42.82;100323.75;4958068;29;20211;-71
2021/04/23 08:19:09;;;;;;;16.98;7.90;;;;;;;12.43;43.21;100315.38;4957865;28;20204;-71
2021/04/23 08:21:36;;;;;;;14.77;8.23;;;;;;;12.82;42.55;100322.22;4958464;29;20236;-71
2021/04/23 08:24:02;;;;;;;11.68;7.97;;;;;;;12.87;42.08;100320.16;4958896;29;20220;-71
2021/04/23 08:26:28;;;;;;;12.73;8.30;;;;;;;12.67;42.02;100330.25;4958301;29;20709;-71
2021/04/23 08:28:54;;;;;;;13.85;7.65;;;;;;;12.84;41.08;100321.19;4957707;29;20220;-70
2021/04/23 08:31:22;;;;;;;12.10;7.90;;;;;;;12.86;41.25;100319.28;4957867;29;20209;-72
2021/04/23 08:33:48;;;;;;;12.23;7.57;;;;;;;12.84;41.53;100317.63;4957978;28;20193;-70
2021/04/23 08:36:15;;;;;;;9.98;7.57;;;;;;;12.77;41.45;100319.78;4958148;28;20567;-71
2021/04/23 08:38:41;;;;;;;16.23;9.68;;;;;;;12.77;40.84;100330.59;4958289;28;20263;-72
2021/04/23 08:41:08;;;;;;;16.00;8.05;;;;;;;13.11;40.12;100323.28;4957865;29;20556;-70
2021/04/23 08:43:35;;;;;;;12.25;8.15;;;;;;;12.94;40.30;100326.97;4957886;29;20205;-71
2021/04/23 08:46:02;;;;;;;12.32;7.82;;;;;;;12.75;40.50;100326.25;4958008;28;20209;-71
2021/04/23 08:48:30;;;;;;;10.50;7.88;;;;;;;12.85;40.51;100325.66;4958245;29;20227;-71
2021/04/23 08:50:57;;;;;;;10.82;8.30;;;;;;;13.13;40.20;100326.78;4957895;28;20212;-72
2021/04/23 08:53:26;;;;;;;9.40;7.25;;;;;;;13.48;38.78;100323.91;4958131;28;20199;-72
2021/04/23 08:55:52;;;;;;;13.02;7.18;;;;;;;13.31;38.09;100319.47;4957940;29;20252;-72
2021/04/23 08:58:18;;;;;;;12.13;7.80;;;;;;;13.24;38.31;100327.03;4957267;28;20276;-72
2021/04/23 09:00:44;;;;;;;12.57;8.00;;;;;;;13.43;38.00;100324.19;4957393;29;20764;-70
2021/04/23 09:03:14;;;;;;;14.00;7.57;;;;;;;13.21;38.54;100329.94;4957926;28;20678;-71
2021/04/23 09:05:41;;;;;;;13.73;7.82;;;;;;;13.24;38.59;100324.34;4957445;29;20247;-72
2021/04/23 09:08:08;;;;;;;12.68;7.03;;;;;;;13.37;38.35;100320.97;4957763;29;20535;-71
2021/04/23 09:10:37;;;;;;;13.40;7.55;;;;;;;13.48;37.92;100318.50;4958149;29;20671;-71
2021/04/23 09:13:06;;;;;;;10.65;7.50;;;;;;;13.65;36.75;100318.34;4957798;28;20279;-71
2021/04/23 09:15:32;;;;;;;10.75;7.05;;;;;;;13.53;36.96;100316.41;4957497;28;20200;-72
2021/04/23 09:18:07;;;;;;;12.35;6.68;;;;;;;13.45;36.20;100322.25;4957662;28;20759;-72
2021/04/23 09:20:35;;;;;;;13.90;6.97;;;;;;;13.95;36.09;100312.06;4957277;29;20579;-72
2021/04/23 09:23:14;;;;;;;14.77;7.22;;;;;;;14.28;35.84;100319.09;4957091;28;20208;-71
2021/04/23 09:25:43;;;;;;;9.32;7.38;;;;;;;14.42;35.58;100316.38;4956657;28;20303;-71
2021/04/23 09:28:10;;;;;;;8.82;6.40;;;;;;;14.53;35.34;100323.84;4956549;29;20207;-71
2021/04/23 09:30:36;;;;;;;8.25;6.35;;;;;;;14.60;34.72;100314.38;4957440;28;20268;-71
2021/04/23 09:33:03;;;;;;;11.73;6.57;;;;;;;14.56;34.62;100320.97;4957129;29;20212;-71
2021/04/23 09:35:35;;;;;;;8.38;5.88;;;;;;;14.10;33.96;100313.84;4957259;28;20196;-71
2021/04/23 09:38:02;;;;;;;11.05;6.30;;;;;;;13.75;35.03;100310.59;4957982;28;20639;-71
2021/04/23 09:40:32;;;;;;;7.78;5.88;;;;;;;13.92;35.05;100307.72;4956505;28;20675;-71
2021/04/23 09:42:59;;;;;;;13.15;6.35;;;;;;;14.52;33.85;100308.56;4956888;29;20189;-73
2021/04/23 09:45:27;;;;;;;10.35;6.30;;;;;;;14.75;32.71;100308.00;4957063;29;20205;-73
2021/04/23 09:47:54;;;;;;;8.38;5.70;;;;;;;14.95;32.67;100303.13;4956618;29;20185;-71
2021/04/23 09:50:21;;;;;;;7.80;6.10;;;;;;;15.12;32.72;100310.16;4957179;28;20188;-72
2021/04/23 09:52:51;;;;;;;11.45;6.60;;;;;;;15.18;32.41;100307.91;4956989;29;20194;-72
2021/04/23 09:55:18;;;;;;;10.35;5.90;;;;;;;15.46;32.11;100305.19;4956864;28;20292;-71
2021/04/23 09:57:51;;;;;;;9.60;6.20;;;;;;;15.48;31.92;100306.84;4956629;29;20193;-71
2021/04/23 10:00:18;;;;;;;12.13;5.97;;;;;;;15.37;32.05;100303.97;4956216;29;20321;-71
2021/04/23 10:02:49;;;;;;;9.43;5.63;;;;;;;15.50;31.72;100299.47;4956587;29;20250;-72
2021/04/23 10:05:29;;;;;;;8.75;5.40;;;;;;;15.45;30.78;100304.34;4956499;28;20268;-71
2021/04/23 10:07:55;;;;;;;8.35;5.78;;;;;;;15.64;31.24;100295.81;4955754;29;20211;-73
2021/04/23 10:10:21;;;;;;;8.85;6.80;;;;;;;15.61;31.68;100291.47;4955995;28;20311;-72
2021/04/23 10:12:51;;;;;;;8.20;6.18;;;;;;;15.83;31.29;100296.31;4956377;29;20196;-72
2021/04/23 10:15:19;;;;;;;8.98;6.40;;;;;;;15.77;32.33;100295.88;4956319;29;20211;-71
2021/04/23 10:17:47;;;;;;;12.05;7.45;;;;;;;15.63;32.78;100291.38;4956240;29;20205;-71
2021/04/23 10:20:17;;;;;;;7.82;6.10;;;;;;;15.69;31.87;100296.34;4956161;29;20189;-72
2021/04/23 10:22:43;;;;;;;16.25;5.68;;;;;;;15.93;30.02;100288.41;4956457;28;20323;-71
2021/04/23 10:25:11;;;;;;;9.02;5.60;;;;;;;15.59;30.60;100285.25;4955412;28;20317;-72
2021/04/23 10:27:38;;;;;;;8.65;4.82;;;;;;;15.78;28.41;100290.34;4956097;28;20226;-72
2021/04/23 10:30:08;;;;;;;6.57;4.32;;;;;;;15.70;28.75;100283.66;4955063;29;20198;-73
2021/04/23 10:32:35;;;;;;;8.95;6.53;;;;;;;15.73;29.99;100286.19;4956099;29;20541;-71
2021/04/23 10:35:01;;;;;;;7.28;5.45;;;;;;;15.92;29.27;100283.97;4955551;29;20622;-71
2021/04/23 10:37:27;;;;;;;7.88;5.47;;;;;;;15.86;29.45;100291.66;4955398;28;20273;-71
2021/04/23 10:39:54;;;;;;;6.45;5.35;;;;;;;15.71;29.49;100286.28;4955877;28;20742;-71
2021/04/23 10:42:40;;;;;;;7.75;5.63;;;;;;;15.87;29.39;100282.53;4955447;29;20301;-71
2021/04/23 10:45:20;;;;;;;13.15;5.88;;;;;;;16.16;29.79;100278.63;4955557;29;20231;-72
2021/04/23 10:47:46;;;;;;;10.05;6.43;;;;;;;16.11;30.15;100279.94;4955973;29;20256;-73
2021/04/23 10:50:16;;;;;;;8.45;5.78;;;;;;;15.70;29.73;100275.53;4955477;29;20242;-72
2021/04/23 10:53:03;;;;;;;10.90;5.63;;;;;;;16.07;29.35;100270.28;4955470;29;20205;-71
2021/04/23 10:55:49;;;;;;;9.63;5.45;;;;;;;16.34;29.31;100265.59;4955673;29;20656;-72
2021/04/23 10:58:19;;;;;;;9.68;5.45;;;;;;;16.42;29.06;100263.22;4956142;29;20608;-72
2021/04/23 11:00:48;;;;;;;9.40;5.35;;;;;;;16.40;29.25;100262.44;4935883;29;20186;-74
2021/04/23 11:03:38;;;;;;;10.25;5.70;;;;;;;16.52;29.38;100254.38;4937001;29;20234;-71
2021/04/23 11:06:06;;;;;;;7.90;6.20;;;;;;;16.71;29.18;100256.63;4936252;29;20276;-72
2021/04/23 11:08:35;;;;;;;7.78;4.97;;;;;;;16.75;29.25;100249.97;4936383;29;20604;-72
2021/04/23 11:11:22;;;;;;;10.15;7.57;;;;;;;16.82;29.12;100249.47;4936469;29;20608;-72
2021/04/23 11:13:53;;;;;;;9.13;5.30;;;;;;;16.81;27.88;100255.88;4934200;28;20215;-72
2021/04/23 11:16:28;;;;;;;6.20;4.45;;;;;;;16.67;26.33;100256.84;4935704;29;20192;-72
2021/04/23 11:18:55;;;;;;;6.55;4.63;;;;;;;16.73;25.96;100244.63;4946752;29;20290;-72
2021/04/23 11:21:38;;;;;;;6.78;4.95;;;;;;;16.93;26.30;100253.22;4955064;28;20208;-72
2021/04/23 11:24:12;;;;;;;7.53;5.10;;;;;;;16.60;26.10;100254.72;4955053;29;20191;-72
2021/04/23 11:27:05;;;;;;;6.43;4.35;;;;;;;16.89;25.72;100252.56;4954799;29;20273;-72